Terminal Aerodrome Forecast
Issued by NWS Charleston, WV

Current Version | Previous Version | Graphics & Text | Print | Product List | Glossary On
Versions: 1 2 3 4 5 6 7 8 9 10 11 12 13 14 15 16 17 18 19 20 21 22 23 24 25 26 27
000
FTUS41 KRLX 012129 AAB
TAFHTS
TAF AMD
KHTS 012129Z 0121/0218 23005KT 5SM -SHRA VCTS BKN040CB
      TEMPO 0121/0122 25015G30KT 2SM TSRA BR SCT007 BKN015CB OVC025
     FM012200 25006KT 2SM SHRA VCTS BKN023CB
      TEMPO 0122/0124 29015G30KT 1/2SM +TSRA FG SCT007 BKN012CB
      OVC025
     FM020000 VRB03KT 5SM -SHRA VCTS BKN023CB
     FM021000 22005KT 3SM -SHRA BKN010=

USA.gov is the U.S. government's official web portal to all federal, state and local government web resources and services.